createdAt,value
2019-01-31T00:00:21.551Z,1.48
2019-01-31T00:01:02.113Z,1.44
2019-01-31T00:01:42.675Z,1.52
2019-01-31T00:02:23.239Z,1.5
2019-01-31T00:03:03.804Z,1.44
2019-01-31T00:03:44.386Z,1.48
2019-01-31T00:04:24.991Z,1.42
2019-01-31T00:05:05.556Z,1.5
2019-01-31T00:05:46.125Z,1.42
2019-01-31T00:06:26.709Z,1.48
2019-01-31T00:07:07.294Z,1.5
2019-01-31T00:07:47.831Z,1.42
2019-01-31T00:08:28.392Z,1.45
2019-01-31T00:09:09.026Z,1.45
2019-01-31T00:09:49.582Z,1.49
2019-01-31T00:10:30.136Z,1.58
2019-01-31T00:11:10.716Z,1.49
2019-01-31T00:11:51.281Z,1.55
2019-01-31T00:12:31.842Z,1.55
2019-01-31T00:13:12.419Z,1.52
2019-01-31T00:13:52.987Z,1.58
2019-01-31T00:14:33.545Z,1.59
2019-01-31T00:15:14.116Z,1.52
2019-01-31T00:15:54.675Z,1.59
2019-01-31T00:16:35.226Z,1.62
2019-01-31T00:17:15.779Z,1.6
2019-01-31T00:17:56.322Z,1.6
2019-01-31T00:18:36.895Z,1.6
2019-01-31T00:19:17.454Z,1.6
2019-01-31T00:19:58.017Z,1.53
2019-01-31T00:20:38.572Z,1.55
2019-01-31T00:21:19.121Z,1.56
2019-01-31T00:21:59.685Z,1.56
2019-01-31T00:22:40.234Z,1.59
2019-01-31T00:23:20.798Z,1.56
2019-01-31T00:24:01.347Z,1.53
2019-01-31T00:24:41.901Z,1.49
2019-01-31T00:25:22.446Z,1.44
2019-01-31T00:26:03.051Z,1.48
2019-01-31T00:26:43.606Z,1.49
2019-01-31T00:27:24.165Z,1.53
2019-01-31T00:28:04.719Z,1.44
2019-01-31T00:28:45.287Z,1.44
2019-01-31T00:29:25.846Z,1.48
2019-01-31T00:30:06.394Z,1.49
2019-01-31T00:30:46.941Z,1.49
2019-01-31T00:31:27.497Z,1.45
2019-01-31T00:32:08.062Z,1.48
2019-01-31T00:32:48.608Z,1.48
2019-01-31T00:33:29.176Z,1.48
2019-01-31T00:34:09.745Z,1.44
2019-01-31T00:34:50.313Z,1.48
2019-01-31T00:35:30.871Z,1.48
2019-01-31T00:36:11.428Z,1.48
2019-01-31T00:36:52.017Z,1.45
2019-01-31T00:37:32.561Z,1.48
2019-01-31T00:38:13.125Z,1.49
2019-01-31T00:38:56.701Z,1.52
2019-01-31T00:39:34.224Z,1.48
2019-01-31T00:40:14.815Z,1.45
2019-01-31T00:40:55.384Z,1.48
2019-01-31T00:41:35.945Z,1.42
2019-01-31T00:42:16.497Z,1.52
2019-01-31T00:42:57.051Z,1.45
2019-01-31T00:43:37.641Z,1.49
2019-01-31T00:44:18.171Z,1.53
2019-01-31T00:44:58.728Z,1.44
2019-01-31T00:45:39.291Z,1.49
2019-01-31T00:46:19.848Z,1.42
2019-01-31T00:47:00.401Z,1.52
2019-01-31T00:47:40.968Z,1.48
2019-01-31T00:48:21.529Z,1.53
2019-01-31T00:49:02.087Z,1.48
2019-01-31T00:49:42.646Z,1.44
2019-01-31T00:50:23.230Z,1.44
2019-01-31T00:51:03.783Z,1.44
2019-01-31T00:51:44.335Z,1.55
2019-01-31T00:52:24.904Z,1.52
2019-01-31T00:53:05.459Z,1.53
2019-01-31T00:53:46.086Z,1.53
2019-01-31T00:54:26.670Z,1.56
2019-01-31T00:55:07.300Z,1.49
2019-01-31T00:55:47.846Z,1.5
2019-01-31T00:56:28.419Z,1.45
2019-01-31T00:57:08.975Z,1.44
2019-01-31T00:57:49.544Z,1.45
2019-01-31T00:58:30.100Z,1.48
2019-01-31T00:59:10.661Z,1.55
2019-01-31T00:59:51.242Z,1.55
2019-01-31T01:00:31.798Z,1.52
2019-01-31T01:01:12.371Z,1.55
2019-01-31T01:01:52.928Z,1.49
2019-01-31T01:02:33.477Z,1.42
2019-01-31T01:03:14.068Z,1.48
2019-01-31T01:03:54.622Z,1.45
2019-01-31T01:04:35.210Z,1.55
2019-01-31T01:05:15.786Z,1.45
2019-01-31T01:05:56.343Z,1.5
2019-01-31T01:06:36.910Z,1.44
2019-01-31T01:07:17.474Z,1.58
2019-01-31T01:07:58.029Z,1.45
2019-01-31T01:08:38.598Z,1.45
2019-01-31T01:09:19.156Z,1.48
2019-01-31T01:09:59.713Z,1.49
2019-01-31T01:10:40.281Z,1.5
2019-01-31T01:11:20.837Z,1.49
2019-01-31T01:12:04.279Z,1.42
2019-01-31T01:12:41.945Z,1.48
2019-01-31T01:13:22.510Z,1.45
2019-01-31T01:14:03.064Z,1.5
2019-01-31T01:14:43.624Z,1.49
2019-01-31T01:15:24.189Z,1.42
2019-01-31T01:16:04.761Z,1.44
2019-01-31T01:16:45.321Z,1.41
2019-01-31T01:17:25.887Z,1.48
2019-01-31T01:18:06.435Z,1.45
2019-01-31T01:18:46.995Z,1.41
2019-01-31T01:19:27.592Z,1.45
2019-01-31T01:20:08.160Z,1.48
2019-01-31T01:20:48.717Z,1.5
2019-01-31T01:21:29.281Z,1.44
2019-01-31T01:22:09.826Z,1.52
2019-01-31T01:22:50.396Z,1.5
2019-01-31T01:23:30.946Z,1.48
2019-01-31T01:24:11.497Z,1.52
2019-01-31T01:24:52.074Z,1.5
2019-01-31T01:25:32.627Z,1.49
2019-01-31T01:26:13.190Z,1.5
2019-01-31T01:26:53.745Z,1.48
2019-01-31T01:27:34.318Z,1.49
2019-01-31T01:28:14.864Z,1.45
2019-01-31T01:28:55.448Z,1.45
2019-01-31T01:29:35.999Z,1.48
2019-01-31T01:30:16.541Z,1.41
2019-01-31T01:30:57.101Z,1.45
2019-01-31T01:31:37.642Z,1.48
2019-01-31T01:32:18.208Z,1.5
2019-01-31T01:32:58.746Z,1.49
2019-01-31T01:33:39.315Z,1.49
2019-01-31T01:34:19.861Z,1.48
2019-01-31T01:35:01.216Z,1.49
2019-01-31T01:35:40.972Z,1.49
2019-01-31T01:36:21.531Z,1.56
2019-01-31T01:37:02.077Z,1.63
2019-01-31T01:37:42.658Z,1.6
2019-01-31T01:38:23.261Z,1.56
2019-01-31T01:39:03.903Z,1.53
2019-01-31T01:39:44.372Z,1.44
2019-01-31T01:40:24.930Z,1.55
2019-01-31T01:41:05.485Z,1.48
2019-01-31T01:41:46.048Z,1.44
2019-01-31T01:42:26.588Z,1.45
2019-01-31T01:43:07.149Z,1.53
2019-01-31T01:43:47.705Z,1.55
2019-01-31T01:44:28.270Z,1.49
2019-01-31T01:45:08.831Z,1.44
2019-01-31T01:45:49.430Z,1.55
2019-01-31T01:46:29.981Z,1.5
2019-01-31T01:47:10.544Z,1.44
2019-01-31T01:47:51.103Z,1.53
2019-01-31T01:48:31.677Z,1.55
2019-01-31T01:49:12.226Z,1.58
2019-01-31T01:49:53.114Z,1.49
2019-01-31T01:50:33.672Z,1.53
2019-01-31T01:51:14.231Z,1.62
2019-01-31T01:51:54.784Z,1.58
2019-01-31T01:52:35.340Z,1.44
2019-01-31T01:53:15.895Z,1.53
2019-01-31T01:53:56.450Z,1.55
2019-01-31T01:54:37.092Z,1.5
2019-01-31T01:55:17.541Z,1.5
2019-01-31T01:55:58.091Z,1.59
2019-01-31T01:56:38.651Z,1.55
2019-01-31T01:57:19.218Z,1.5
2019-01-31T01:57:59.770Z,1.53
2019-01-31T01:58:40.349Z,1.49
2019-01-31T01:59:20.905Z,1.44
2019-01-31T02:00:01.463Z,1.58
2019-01-31T02:00:42.024Z,1.49
2019-01-31T02:01:22.612Z,1.49
2019-01-31T02:02:03.174Z,1.52
2019-01-31T02:02:43.733Z,1.49
2019-01-31T02:03:24.283Z,1.48
2019-01-31T02:04:04.830Z,1.44
2019-01-31T02:04:45.427Z,1.49
2019-01-31T02:05:25.942Z,1.5
2019-01-31T02:06:06.501Z,1.49
2019-01-31T02:06:47.061Z,1.5
2019-01-31T02:07:27.625Z,1.48
2019-01-31T02:08:08.192Z,1.48
2019-01-31T02:08:48.771Z,1.44
2019-01-31T02:09:30.375Z,1.55
2019-01-31T02:10:09.895Z,1.45
2019-01-31T02:10:50.439Z,1.52
2019-01-31T02:11:30.995Z,1.45
2019-01-31T02:12:11.543Z,1.48
2019-01-31T02:12:52.120Z,1.42
2019-01-31T02:13:32.671Z,1.52
2019-01-31T02:14:13.235Z,1.49
2019-01-31T02:14:53.810Z,1.5
2019-01-31T02:15:34.366Z,1.52
2019-01-31T02:16:14.921Z,1.45
2019-01-31T02:16:55.471Z,1.44
2019-01-31T02:17:36.022Z,1.48
2019-01-31T02:18:16.573Z,1.48
2019-01-31T02:18:57.116Z,1.42
2019-01-31T02:19:37.672Z,1.38
2019-01-31T02:20:18.237Z,1.4
2019-01-31T02:20:58.783Z,1.4
2019-01-31T02:21:39.362Z,1.42
2019-01-31T02:22:19.932Z,1.42
2019-01-31T02:23:00.498Z,1.42
2019-01-31T02:23:41.069Z,1.49
2019-01-31T02:24:21.621Z,1.5
2019-01-31T02:25:02.168Z,1.45
2019-01-31T02:25:42.737Z,1.45
2019-01-31T02:26:23.291Z,1.41
2019-01-31T02:27:03.845Z,1.48
2019-01-31T02:27:44.404Z,1.45
2019-01-31T02:28:24.957Z,1.42
2019-01-31T02:29:05.518Z,1.41
2019-01-31T02:29:46.070Z,1.4
2019-01-31T02:30:26.623Z,1.44
2019-01-31T02:31:07.175Z,1.48
2019-01-31T02:31:47.751Z,1.49
2019-01-31T02:32:28.312Z,1.45
2019-01-31T02:33:08.881Z,1.52
2019-01-31T02:33:49.435Z,1.5
2019-01-31T02:34:30.000Z,1.5
2019-01-31T02:35:10.555Z,1.49
2019-01-31T02:35:51.116Z,1.44
2019-01-31T02:36:31.687Z,1.49
2019-01-31T02:37:12.234Z,1.56
2019-01-31T02:37:52.802Z,1.55
2019-01-31T02:38:33.359Z,1.68
2019-01-31T02:39:13.909Z,1.63
2019-01-31T02:39:54.460Z,1.55
2019-01-31T02:40:35.030Z,1.56
2019-01-31T02:41:15.590Z,1.56
2019-01-31T02:41:56.160Z,1.55
2019-01-31T02:42:36.717Z,1.55
2019-01-31T02:43:17.285Z,1.63
2019-01-31T02:43:57.871Z,1.6
2019-01-31T02:44:38.435Z,1.62
2019-01-31T02:45:19.001Z,1.62
2019-01-31T02:45:59.555Z,1.6
2019-01-31T02:46:40.114Z,1.67
2019-01-31T02:47:20.670Z,1.59
2019-01-31T02:48:01.216Z,1.62
2019-01-31T02:48:41.769Z,1.59
2019-01-31T02:49:22.320Z,1.63
2019-01-31T02:50:02.879Z,1.62
2019-01-31T02:50:43.432Z,1.58
2019-01-31T02:51:23.992Z,1.58
2019-01-31T02:52:04.554Z,1.62
2019-01-31T02:52:45.107Z,1.62
2019-01-31T02:53:25.669Z,1.6
2019-01-31T02:54:06.217Z,1.59
2019-01-31T02:54:46.810Z,1.66
2019-01-31T02:55:27.359Z,1.66
2019-01-31T02:56:07.916Z,1.73
2019-01-31T02:56:48.473Z,1.74
2019-01-31T02:57:29.040Z,1.74
2019-01-31T02:58:09.607Z,1.68
2019-01-31T02:58:50.188Z,1.8
2019-01-31T02:59:30.741Z,1.67
2019-01-31T03:00:11.302Z,1.74
2019-01-31T03:00:51.860Z,1.73
2019-01-31T03:01:32.432Z,1.71
2019-01-31T03:02:12.995Z,1.76
2019-01-31T03:02:53.563Z,1.68
2019-01-31T03:03:34.113Z,1.66
2019-01-31T03:04:14.667Z,1.7
2019-01-31T03:04:55.235Z,1.66
2019-01-31T03:05:35.788Z,1.73
2019-01-31T03:06:16.352Z,1.58
2019-01-31T03:06:56.915Z,1.7
2019-01-31T03:07:37.464Z,1.62
2019-01-31T03:08:18.018Z,1.67
2019-01-31T03:08:58.582Z,1.7
2019-01-31T03:09:39.168Z,1.71
2019-01-31T03:10:19.723Z,1.74
2019-01-31T03:11:00.289Z,1.63
2019-01-31T03:11:40.844Z,1.68
2019-01-31T03:12:21.400Z,1.66
2019-01-31T03:13:01.966Z,1.62
2019-01-31T03:13:42.548Z,1.66
2019-01-31T03:14:23.105Z,1.74
2019-01-31T03:15:03.674Z,1.77
2019-01-31T03:15:44.224Z,1.71
2019-01-31T03:16:24.789Z,1.7
2019-01-31T03:17:05.345Z,1.7
2019-01-31T03:17:45.897Z,1.63
2019-01-31T03:18:26.456Z,1.62
2019-01-31T03:19:07.023Z,1.67
2019-01-31T03:19:47.608Z,1.62
2019-01-31T03:20:28.211Z,1.62
2019-01-31T03:21:08.772Z,1.6
2019-01-31T03:21:49.337Z,1.58
2019-01-31T03:22:29.898Z,1.59
2019-01-31T03:23:10.467Z,1.52
2019-01-31T03:23:51.014Z,1.49
2019-01-31T03:24:31.582Z,1.49
2019-01-31T03:25:12.181Z,1.49
2019-01-31T03:25:52.720Z,1.55
2019-01-31T03:26:33.272Z,1.52
2019-01-31T03:27:13.825Z,1.58
2019-01-31T03:27:54.378Z,1.63
2019-01-31T03:28:34.936Z,1.58
2019-01-31T03:29:15.505Z,1.7
2019-01-31T03:29:56.047Z,1.62
2019-01-31T03:30:36.605Z,1.59
2019-01-31T03:31:17.159Z,1.6
2019-01-31T03:31:57.715Z,1.68
2019-01-31T03:32:38.270Z,1.68
2019-01-31T03:33:18.826Z,1.77
2019-01-31T03:33:59.391Z,1.74
2019-01-31T03:34:39.952Z,1.74
2019-01-31T03:35:20.517Z,1.73
2019-01-31T03:36:01.066Z,1.8
2019-01-31T03:36:41.623Z,1.74
2019-01-31T03:37:22.222Z,1.7
2019-01-31T03:38:02.785Z,1.66
2019-01-31T03:38:43.338Z,1.62
2019-01-31T03:39:23.891Z,1.59
2019-01-31T03:40:06.781Z,1.63
2019-01-31T03:40:45.019Z,1.56
2019-01-31T03:41:25.586Z,1.56
2019-01-31T03:42:06.136Z,1.59
2019-01-31T03:42:46.687Z,1.6
2019-01-31T03:43:27.245Z,1.68
2019-01-31T03:44:07.829Z,1.68
2019-01-31T03:44:48.379Z,1.6
2019-01-31T03:45:28.931Z,1.58
2019-01-31T03:46:09.484Z,1.68
2019-01-31T03:46:50.037Z,1.68
2019-01-31T03:47:30.589Z,1.58
2019-01-31T03:48:11.157Z,1.62
2019-01-31T03:48:51.711Z,1.58
2019-01-31T03:49:32.596Z,1.63
2019-01-31T03:50:13.170Z,1.58
2019-01-31T03:50:53.739Z,1.62
2019-01-31T03:51:34.306Z,1.66
2019-01-31T03:52:14.858Z,1.58
2019-01-31T03:52:55.433Z,1.62
2019-01-31T03:53:35.998Z,1.68
2019-01-31T03:54:16.546Z,1.68
2019-01-31T03:54:57.098Z,1.67
2019-01-31T03:55:37.666Z,1.7
2019-01-31T03:56:18.234Z,1.71
2019-01-31T03:56:58.780Z,1.67
2019-01-31T03:57:39.341Z,1.66
2019-01-31T03:58:19.896Z,1.62
2019-01-31T03:59:00.442Z,1.67
2019-01-31T03:59:41.004Z,1.62
2019-01-31T04:00:21.571Z,1.66
2019-01-31T04:01:02.144Z,1.59
2019-01-31T04:01:42.715Z,1.66
2019-01-31T04:02:23.279Z,1.71
2019-01-31T04:03:03.842Z,1.62
2019-01-31T04:03:44.386Z,1.66
2019-01-31T04:04:24.964Z,1.58
2019-01-31T04:05:05.495Z,1.62
2019-01-31T04:05:46.048Z,1.62
2019-01-31T04:06:26.606Z,1.7
2019-01-31T04:07:07.166Z,1.73
2019-01-31T04:07:47.731Z,1.73
2019-01-31T04:08:28.285Z,1.77
2019-01-31T04:09:08.841Z,1.76
2019-01-31T04:09:49.404Z,1.7
2019-01-31T04:10:29.964Z,1.7
2019-01-31T04:11:10.513Z,1.76
2019-01-31T04:11:51.086Z,1.74
2019-01-31T04:12:31.664Z,1.76
2019-01-31T04:13:12.216Z,1.78
2019-01-31T04:13:52.795Z,1.78
2019-01-31T04:14:33.343Z,1.76
2019-01-31T04:15:13.900Z,1.81
2019-01-31T04:15:54.469Z,1.74
2019-01-31T04:16:35.024Z,1.73
2019-01-31T04:17:15.660Z,1.73
2019-01-31T04:17:56.140Z,1.71
2019-01-31T04:18:36.698Z,1.8
2019-01-31T04:19:17.248Z,1.77
2019-01-31T04:19:57.805Z,1.77
2019-01-31T04:20:38.376Z,1.71
2019-01-31T04:21:18.976Z,1.73
2019-01-31T04:21:59.535Z,1.8
2019-01-31T04:22:40.091Z,1.85
2019-01-31T04:23:20.649Z,1.84
2019-01-31T04:24:01.200Z,1.8
2019-01-31T04:24:41.749Z,1.78
2019-01-31T04:25:22.326Z,1.78
2019-01-31T04:26:02.876Z,1.77
2019-01-31T04:26:43.421Z,1.84
2019-01-31T04:27:23.988Z,1.76
2019-01-31T04:28:04.549Z,1.8
2019-01-31T04:28:45.108Z,1.78
2019-01-31T04:29:25.659Z,1.81
2019-01-31T04:30:06.213Z,1.8
2019-01-31T04:30:46.774Z,1.84
2019-01-31T04:31:27.339Z,1.78
2019-01-31T04:32:07.973Z,1.76
2019-01-31T04:32:48.536Z,1.8
2019-01-31T04:33:29.086Z,1.76
2019-01-31T04:34:09.646Z,1.8
2019-01-31T04:34:50.202Z,1.84
2019-01-31T04:35:30.768Z,1.77
2019-01-31T04:36:11.324Z,1.76
2019-01-31T04:36:51.901Z,1.73
2019-01-31T04:37:32.452Z,1.84
2019-01-31T04:38:13.015Z,1.85
2019-01-31T04:38:53.568Z,1.8
2019-01-31T04:39:34.121Z,1.76
2019-01-31T04:40:14.680Z,1.81
2019-01-31T04:40:55.243Z,1.84
2019-01-31T04:41:35.802Z,1.89
2019-01-31T04:42:16.360Z,1.91
2019-01-31T04:42:56.912Z,1.91
2019-01-31T04:43:37.479Z,1.85
2019-01-31T04:44:18.046Z,1.78
2019-01-31T04:44:58.613Z,1.78
2019-01-31T04:45:39.175Z,1.81
2019-01-31T04:46:19.743Z,1.81
2019-01-31T04:47:00.293Z,1.85
2019-01-31T04:47:40.847Z,1.76
2019-01-31T04:48:21.403Z,1.8
2019-01-31T04:49:01.969Z,1.8
2019-01-31T04:49:43.433Z,1.84
2019-01-31T04:50:23.997Z,1.78
2019-01-31T04:51:04.570Z,1.78
2019-01-31T04:51:45.118Z,1.81
2019-01-31T04:52:25.700Z,1.78
2019-01-31T04:53:06.252Z,1.76
2019-01-31T04:53:46.844Z,1.77
2019-01-31T04:54:27.395Z,1.74
2019-01-31T04:55:07.953Z,1.78
2019-01-31T04:55:48.502Z,1.76
2019-01-31T04:56:29.106Z,1.76
2019-01-31T04:57:09.657Z,1.74
2019-01-31T04:57:50.205Z,1.84
2019-01-31T04:58:30.768Z,1.77
2019-01-31T04:59:11.329Z,1.81
2019-01-31T04:59:51.889Z,1.74
2019-01-31T05:00:32.442Z,1.71
2019-01-31T05:01:13.006Z,1.7
2019-01-31T05:01:53.625Z,1.74
2019-01-31T05:02:34.166Z,1.71
2019-01-31T05:03:14.715Z,1.76
2019-01-31T05:03:55.274Z,1.84
2019-01-31T05:04:35.879Z,1.85
2019-01-31T05:05:16.369Z,1.76
2019-01-31T05:05:56.921Z,1.81
2019-01-31T05:06:37.475Z,1.78
2019-01-31T05:07:18.021Z,1.78
2019-01-31T05:07:58.586Z,1.78
2019-01-31T05:08:39.159Z,1.85
2019-01-31T05:09:19.719Z,1.78
2019-01-31T05:10:00.466Z,1.84
2019-01-31T05:10:42.952Z,1.77
2019-01-31T05:11:21.470Z,1.81
2019-01-31T05:12:02.034Z,1.88
2019-01-31T05:12:42.589Z,1.88
2019-01-31T05:13:23.145Z,1.84
2019-01-31T05:14:03.710Z,1.85
2019-01-31T05:14:44.274Z,1.97
2019-01-31T05:15:24.855Z,1.95
2019-01-31T05:16:05.409Z,1.91
2019-01-31T05:16:45.974Z,1.95
2019-01-31T05:17:26.520Z,1.91
2019-01-31T05:18:07.073Z,1.94
2019-01-31T05:18:47.627Z,1.94
2019-01-31T05:19:28.180Z,1.91
2019-01-31T05:20:08.724Z,1.91
2019-01-31T05:20:49.292Z,1.91
2019-01-31T05:21:29.847Z,1.88
2019-01-31T05:22:10.409Z,1.91
2019-01-31T05:22:50.965Z,1.81
2019-01-31T05:23:31.523Z,1.91
2019-01-31T05:24:12.080Z,1.81
2019-01-31T05:24:52.633Z,1.88
2019-01-31T05:25:33.182Z,1.84
2019-01-31T05:26:13.739Z,1.91
2019-01-31T05:26:54.301Z,1.85
2019-01-31T05:27:34.849Z,1.78
2019-01-31T05:28:15.417Z,1.77
2019-01-31T05:28:55.980Z,1.78
2019-01-31T05:29:36.538Z,1.78
2019-01-31T05:30:17.119Z,1.76
2019-01-31T05:30:57.689Z,1.7
2019-01-31T05:31:38.234Z,1.77
2019-01-31T05:32:18.802Z,1.7
2019-01-31T05:32:59.378Z,1.77
2019-01-31T05:33:39.927Z,1.77
2019-01-31T05:34:20.485Z,1.76
2019-01-31T05:35:01.063Z,1.74
2019-01-31T05:35:41.616Z,1.73
2019-01-31T05:36:22.166Z,1.73
2019-01-31T05:37:02.725Z,1.76
2019-01-31T05:37:43.309Z,1.77
2019-01-31T05:38:23.890Z,1.77
2019-01-31T05:39:04.443Z,1.78
2019-01-31T05:39:45.011Z,1.74
2019-01-31T05:40:25.560Z,1.71
2019-01-31T05:41:06.123Z,1.74
2019-01-31T05:41:46.797Z,1.76
2019-01-31T05:42:27.495Z,1.73
2019-01-31T05:43:08.046Z,1.8
2019-01-31T05:43:48.901Z,1.8
2019-01-31T05:44:29.648Z,1.77
2019-01-31T05:45:10.221Z,1.76
2019-01-31T05:45:50.775Z,1.81
2019-01-31T05:46:31.342Z,1.85
2019-01-31T05:47:11.933Z,1.84
2019-01-31T05:47:52.548Z,1.8
2019-01-31T05:48:33.169Z,1.8
2019-01-31T05:49:14.171Z,1.74
2019-01-31T05:49:54.733Z,1.74
2019-01-31T05:50:35.288Z,1.74
2019-01-31T05:51:15.855Z,1.76
2019-01-31T05:51:56.400Z,1.67
2019-01-31T05:52:37.103Z,1.7
2019-01-31T05:53:17.656Z,1.7
2019-01-31T05:53:58.214Z,1.66
2019-01-31T05:54:38.771Z,1.7
2019-01-31T05:55:19.362Z,1.67
2019-01-31T05:55:59.917Z,1.68
2019-01-31T05:56:40.848Z,1.68
2019-01-31T05:57:21.442Z,1.76
2019-01-31T05:58:02.286Z,1.74
2019-01-31T05:58:42.925Z,1.71
2019-01-31T05:59:23.475Z,1.73
2019-01-31T06:00:04.057Z,1.76
2019-01-31T06:00:44.673Z,1.85
2019-01-31T06:01:25.222Z,1.84
2019-01-31T06:02:05.784Z,1.71
2019-01-31T06:02:46.380Z,1.78
2019-01-31T06:03:26.958Z,1.76
2019-01-31T06:04:07.512Z,1.78
2019-01-31T06:04:48.062Z,1.71
2019-01-31T06:05:28.607Z,1.8
2019-01-31T06:06:09.169Z,1.78
2019-01-31T06:06:49.720Z,1.73
2019-01-31T06:07:30.281Z,1.73
2019-01-31T06:08:10.860Z,1.77
2019-01-31T06:08:51.423Z,1.74
2019-01-31T06:09:31.985Z,1.59
2019-01-31T06:10:12.559Z,1.68
2019-01-31T06:10:53.141Z,1.58
2019-01-31T06:11:33.690Z,1.59
2019-01-31T06:12:14.254Z,1.59
2019-01-31T06:12:54.818Z,1.59
2019-01-31T06:13:35.381Z,1.6
2019-01-31T06:14:15.934Z,1.63
2019-01-31T06:14:56.496Z,1.59
2019-01-31T06:15:37.047Z,1.68
2019-01-31T06:16:17.620Z,1.63
2019-01-31T06:16:58.198Z,1.59
2019-01-31T06:17:38.749Z,1.55
2019-01-31T06:18:19.317Z,1.55
2019-01-31T06:18:59.870Z,1.45
2019-01-31T06:19:40.418Z,1.44
2019-01-31T06:20:21.002Z,1.45
2019-01-31T06:21:01.567Z,1.44
2019-01-31T06:21:42.114Z,1.48
2019-01-31T06:22:24.946Z,1.45
2019-01-31T06:23:03.248Z,1.49
2019-01-31T06:23:43.799Z,1.49
2019-01-31T06:24:24.477Z,1.49
2019-01-31T06:25:05.176Z,1.45
2019-01-31T06:25:45.896Z,1.44
2019-01-31T06:26:26.570Z,1.5
2019-01-31T06:27:07.263Z,1.58
2019-01-31T06:27:47.906Z,1.67
2019-01-31T06:28:28.705Z,1.66
2019-01-31T06:29:09.288Z,1.63
2019-01-31T06:29:49.898Z,1.53
2019-01-31T06:30:30.393Z,1.59
2019-01-31T06:31:10.955Z,1.59
2019-01-31T06:31:51.599Z,1.67
2019-01-31T06:32:32.194Z,1.74
2019-01-31T06:33:12.796Z,1.7
2019-01-31T06:33:53.355Z,1.77
2019-01-31T06:34:33.947Z,1.71
2019-01-31T06:35:14.502Z,1.7
2019-01-31T06:35:55.090Z,1.8
2019-01-31T06:36:35.653Z,1.71
2019-01-31T06:37:16.220Z,1.68
2019-01-31T06:37:56.814Z,1.74
2019-01-31T06:38:37.402Z,1.58
2019-01-31T06:39:20.063Z,1.6
2019-01-31T06:39:58.533Z,1.6
2019-01-31T06:40:39.068Z,1.62
2019-01-31T06:41:19.646Z,1.6
2019-01-31T06:42:00.209Z,1.6
2019-01-31T06:42:40.767Z,1.63
2019-01-31T06:43:21.336Z,1.58
2019-01-31T06:44:02.047Z,1.59
2019-01-31T06:44:42.495Z,1.68
2019-01-31T06:45:23.059Z,1.77
2019-01-31T06:46:03.624Z,1.7
2019-01-31T06:46:44.174Z,1.74
2019-01-31T06:47:24.798Z,1.76
2019-01-31T06:48:05.727Z,1.68
2019-01-31T06:48:46.293Z,1.68
2019-01-31T06:49:26.849Z,1.7
2019-01-31T06:50:07.429Z,1.67
2019-01-31T06:50:47.979Z,1.62
2019-01-31T06:51:28.538Z,1.68
2019-01-31T06:52:09.098Z,1.81
2019-01-31T06:52:49.664Z,1.74
2019-01-31T06:53:30.221Z,1.71
2019-01-31T06:54:10.806Z,1.76
2019-01-31T06:54:51.368Z,1.74
2019-01-31T06:55:31.963Z,1.78
2019-01-31T06:56:12.514Z,1.76
2019-01-31T06:56:53.097Z,1.78
2019-01-31T06:57:33.716Z,1.89
2019-01-31T06:58:14.318Z,1.85
2019-01-31T06:58:54.908Z,1.85
2019-01-31T06:59:35.441Z,1.97
2019-01-31T07:00:16.013Z,1.99
2019-01-31T07:00:56.583Z,1.92
2019-01-31T07:01:37.169Z,1.94
2019-01-31T07:02:17.728Z,1.92
2019-01-31T07:02:58.288Z,1.89
2019-01-31T07:05:53.927Z,1.94
2019-01-31T07:06:34.518Z,1.97
2019-01-31T07:07:15.094Z,1.99
2019-01-31T07:07:55.636Z,1.95
2019-01-31T07:08:36.188Z,1.92
2019-01-31T07:09:16.772Z,2.04
2019-01-31T07:09:57.286Z,1.94
2019-01-31T07:10:37.859Z,2.06
2019-01-31T07:11:29.291Z,1.99
2019-01-31T07:11:58.983Z,2.07
2019-01-31T07:12:39.523Z,2.13
2019-01-31T07:13:20.072Z,2.14
2019-01-31T07:14:00.652Z,2.11
2019-01-31T07:14:41.262Z,2.14
2019-01-31T07:15:21.996Z,2.15
2019-01-31T07:16:02.566Z,2.18
2019-01-31T10:40:58.003Z,4.48
2019-01-31T10:41:38.599Z,4.49
2019-01-31T10:42:19.225Z,4.4
2019-01-31T10:42:59.789Z,4.4
2019-01-31T10:43:40.334Z,4.44
2019-01-31T10:44:20.904Z,4.5
2019-01-31T10:45:01.493Z,4.44
2019-01-31T10:45:42.041Z,4.53
2019-01-31T10:46:22.609Z,4.48
2019-01-31T10:47:03.185Z,4.52
2019-01-31T10:47:43.782Z,4.55
2019-01-31T10:48:24.378Z,4.52
2019-01-31T10:49:04.968Z,4.5
2019-01-31T10:49:45.849Z,4.42
2019-01-31T10:50:26.394Z,4.4
2019-01-31T10:51:06.961Z,4.42
2019-01-31T10:51:47.533Z,4.4
2019-01-31T10:52:28.078Z,4.44
2019-01-31T10:53:08.643Z,4.48
2019-01-31T10:53:49.277Z,4.45
2019-01-31T10:54:29.853Z,4.48
2019-01-31T10:55:10.581Z,4.4
2019-01-31T10:55:52.490Z,4.45
2019-01-31T10:56:33.038Z,4.4
2019-01-31T10:57:13.592Z,4.45
2019-01-31T10:57:54.149Z,4.42
2019-01-31T10:58:34.714Z,4.41
2019-01-31T10:59:15.278Z,4.41
2019-01-31T10:59:55.848Z,4.41
2019-01-31T11:00:36.424Z,4.44
2019-01-31T11:01:16.988Z,4.4
2019-01-31T11:01:57.535Z,4.42
2019-01-31T11:02:38.093Z,4.44
2019-01-31T11:03:18.655Z,4.45
2019-01-31T11:03:59.268Z,4.44
2019-01-31T11:04:39.861Z,4.42
2019-01-31T11:05:20.406Z,4.55
2019-01-31T11:06:00.963Z,4.45
2019-01-31T11:06:41.530Z,4.52
2019-01-31T11:07:22.166Z,4.55
2019-01-31T11:08:02.728Z,4.5
2019-01-31T11:08:43.275Z,4.53
2019-01-31T11:09:23.835Z,4.52
2019-01-31T11:10:04.404Z,4.55
2019-01-31T11:10:44.981Z,4.58
2019-01-31T11:11:25.535Z,4.5
2019-01-31T11:12:06.083Z,4.48
2019-01-31T11:12:46.645Z,4.53
2019-01-31T11:13:27.205Z,4.58
2019-01-31T11:14:07.758Z,4.53
2019-01-31T11:14:48.360Z,4.53
2019-01-31T11:15:28.961Z,4.55
2019-01-31T11:16:09.509Z,4.6
2019-01-31T11:16:50.061Z,4.59
2019-01-31T11:17:30.628Z,4.52
2019-01-31T11:18:11.189Z,4.53
2019-01-31T11:18:51.746Z,4.48
2019-01-31T11:19:32.307Z,4.5
2019-01-31T11:20:12.888Z,4.48
2019-01-31T11:20:53.451Z,4.45
2019-01-31T11:21:33.992Z,4.42
2019-01-31T11:22:14.588Z,4.5
2019-01-31T11:22:55.196Z,4.53
2019-01-31T11:23:35.793Z,4.56
2019-01-31T11:24:16.362Z,4.53
2019-01-31T11:24:56.967Z,4.55
2019-01-31T11:25:37.524Z,4.52
2019-01-31T11:26:18.101Z,4.53
2019-01-31T11:26:58.646Z,4.56
2019-01-31T11:27:39.206Z,4.55
2019-01-31T11:28:19.803Z,4.52
2019-01-31T11:29:00.392Z,4.56
2019-01-31T11:29:40.941Z,4.52
2019-01-31T11:30:21.538Z,4.53
2019-01-31T11:31:02.086Z,4.58
2019-01-31T11:31:42.684Z,4.53
2019-01-31T11:32:23.238Z,4.55
2019-01-31T11:33:03.791Z,4.63
2019-01-31T11:33:44.420Z,4.63
2019-01-31T11:34:32.592Z,4.62
2019-01-31T11:35:05.523Z,4.6
2019-01-31T11:35:46.082Z,4.59
2019-01-31T11:36:26.650Z,4.68
2019-01-31T11:37:07.200Z,4.59
2019-01-31T11:37:47.784Z,4.7
2019-01-31T11:38:28.341Z,4.68
2019-01-31T11:39:08.898Z,4.67
2019-01-31T11:39:49.461Z,4.66
2019-01-31T11:40:30.036Z,4.71
2019-01-31T11:41:10.612Z,4.67
2019-01-31T11:41:51.173Z,4.73
2019-01-31T11:42:31.738Z,4.71
2019-01-31T11:43:12.297Z,4.66
2019-01-31T11:43:52.867Z,4.63
2019-01-31T11:44:33.439Z,4.66
2019-01-31T11:45:13.995Z,4.67
2019-01-31T11:45:54.565Z,4.58
2019-01-31T11:46:35.112Z,4.63
2019-01-31T11:47:15.716Z,4.63
2019-01-31T11:47:56.290Z,4.67
2019-01-31T11:48:36.848Z,4.67
2019-01-31T11:49:17.392Z,4.7
2019-01-31T11:49:58.447Z,4.67
2019-01-31T11:50:39.011Z,4.67
2019-01-31T11:51:19.565Z,4.7
2019-01-31T11:52:00.127Z,4.67
2019-01-31T11:52:40.694Z,4.7
2019-01-31T11:53:21.305Z,4.75
2019-01-31T11:54:01.887Z,4.73
2019-01-31T11:54:42.500Z,4.73
2019-01-31T11:55:23.065Z,4.73
2019-01-31T11:56:03.635Z,4.78
2019-01-31T11:56:44.203Z,4.82
2019-01-31T11:57:24.753Z,4.74
2019-01-31T11:58:05.304Z,4.77
2019-01-31T11:58:45.844Z,4.78
2019-01-31T11:59:26.404Z,4.84
2019-01-31T12:00:06.952Z,4.75
2019-01-31T12:00:47.526Z,4.74
2019-01-31T12:01:28.142Z,4.86
2019-01-31T12:02:08.688Z,4.84
2019-01-31T12:02:54.856Z,4.86
2019-01-31T12:03:29.808Z,4.93
2019-01-31T12:04:10.382Z,4.9
2019-01-31T12:04:50.932Z,4.92
2019-01-31T12:05:31.481Z,4.89
2019-01-31T12:06:12.036Z,4.9
2019-01-31T12:06:52.598Z,4.9
2019-01-31T12:07:33.184Z,4.87
2019-01-31T12:08:13.741Z,4.97
2019-01-31T12:08:54.297Z,4.93
2019-01-31T12:09:34.843Z,4.9
2019-01-31T12:10:15.428Z,4.87
2019-01-31T12:10:55.976Z,4.96
2019-01-31T12:11:36.536Z,4.99
2019-01-31T12:12:17.091Z,4.92
2019-01-31T12:12:57.651Z,4.96
2019-01-31T12:13:38.219Z,5.02
2019-01-31T12:14:18.767Z,5.04
2019-01-31T12:14:59.326Z,5.08
2019-01-31T12:15:39.906Z,5.1
2019-01-31T12:16:20.499Z,5.14
2019-01-31T12:17:01.058Z,5.14
2019-01-31T12:17:41.623Z,5.18
2019-01-31T12:18:22.191Z,5.14
2019-01-31T12:19:02.758Z,5.23
2019-01-31T12:19:43.341Z,5.21
2019-01-31T12:20:23.895Z,5.23
2019-01-31T12:21:04.459Z,5.28
2019-01-31T12:21:45.008Z,5.23
2019-01-31T12:22:25.616Z,5.14
2019-01-31T12:23:06.173Z,5.25
2019-01-31T12:23:46.730Z,5.14
2019-01-31T12:24:27.289Z,5.23
2019-01-31T12:25:07.854Z,5.17
2019-01-31T12:25:48.438Z,5.17
2019-01-31T12:26:29.044Z,5.12
2019-01-31T12:27:09.594Z,5.15
2019-01-31T12:27:50.151Z,5.18
2019-01-31T12:28:30.718Z,5.14
2019-01-31T12:29:11.253Z,5.23